createdAt,value
2023-04-02T00:00:08.187Z,3.30
2023-04-02T00:01:00.902Z,3.30
2023-04-02T00:02:10.638Z,3.30
2023-04-02T00:03:02.268Z,3.30
2023-04-02T00:04:00.680Z,3.30
2023-04-02T00:05:10.613Z,2.70
2023-04-02T00:06:00.691Z,2.70
2023-04-02T00:07:10.608Z,2.70
2023-04-02T00:08:02.304Z,2.70
2023-04-02T00:09:02.125Z,2.70
2023-04-02T00:10:00.717Z,2.70
2023-04-02T00:11:00.977Z,2.70
2023-04-02T00:12:10.613Z,2.70
2023-04-02T00:13:02.608Z,2.70
2023-04-02T00:14:01.640Z,2.70
2023-04-02T00:15:00.789Z,2.70
2023-04-02T00:16:01.517Z,2.70
2023-04-02T00:17:02.060Z,2.70
2023-04-02T00:18:01.511Z,2.70
2023-04-02T00:19:02.926Z,2.70
2023-04-02T00:20:02.002Z,2.70
2023-04-02T00:21:10.625Z,2.70
2023-04-02T00:22:01.736Z,2.70
2023-04-02T00:23:01.534Z,2.70
2023-04-02T00:24:01.908Z,2.70
2023-04-02T00:25:06.529Z,2.70
2023-04-02T00:26:00.841Z,2.70
2023-04-02T00:27:00.708Z,2.70
2023-04-02T00:28:02.148Z,2.70
2023-04-02T00:29:01.444Z,2.70
2023-04-02T00:30:01.002Z,2.70
2023-04-02T00:31:00.755Z,2.70
2023-04-02T00:32:00.955Z,2.70
2023-04-02T00:33:00.807Z,2.70
2023-04-02T00:34:01.792Z,2.70
2023-04-02T00:35:01.146Z,2.70
2023-04-02T00:36:04.791Z,2.50
2023-04-02T00:37:01.069Z,2.50
2023-04-02T00:38:00.885Z,2.50
2023-04-02T00:39:03.252Z,2.50
2023-04-02T00:40:01.236Z,2.50
2023-04-02T00:41:02.783Z,2.50
2023-04-02T00:42:01.578Z,2.50
2023-04-02T00:43:00.696Z,2.50
2023-04-02T00:44:01.473Z,2.50
2023-04-02T00:45:01.098Z,2.50
2023-04-02T00:46:03.041Z,2.50
2023-04-02T00:47:03.117Z,2.50
2023-04-02T00:48:10.664Z,2.50
2023-04-02T00:49:06.389Z,2.50
2023-04-02T00:50:10.614Z,2.50
2023-04-02T00:51:08.496Z,2.50
2023-04-02T00:52:02.087Z,2.50
2023-04-02T00:53:07.554Z,2.50
2023-04-02T00:54:02.877Z,2.50
2023-04-02T00:55:05.577Z,2.50
2023-04-02T00:56:02.209Z,2.50
2023-04-02T00:57:01.010Z,2.50
2023-04-02T00:58:01.134Z,2.50
2023-04-02T00:59:00.833Z,2.50
2023-04-02T01:00:10.613Z,2.50
2023-04-02T01:01:01.402Z,2.50
2023-04-02T01:02:10.646Z,2.50
2023-04-02T01:03:10.673Z,2.50
2023-04-02T01:04:01.409Z,2.50
2023-04-02T01:05:01.829Z,2.50
2023-04-02T01:06:03.781Z,3.50
2023-04-02T01:07:04.258Z,3.50
2023-04-02T01:08:08.088Z,3.50
2023-04-02T01:09:10.636Z,3.50
2023-04-02T01:10:10.608Z,3.50
2023-04-02T01:11:03.969Z,3.50
2023-04-02T01:12:10.607Z,3.50
2023-04-02T01:13:01.760Z,3.50
2023-04-02T01:14:09.467Z,3.50
2023-04-02T01:15:10.619Z,3.50
2023-04-02T01:16:01.768Z,3.50
2023-04-02T01:17:03.981Z,3.50
2023-04-02T01:18:10.618Z,3.50
2023-04-02T01:19:10.605Z,3.50
2023-04-02T01:20:00.678Z,3.50
2023-04-02T01:21:00.692Z,3.50
2023-04-02T01:22:01.688Z,3.50
2023-04-02T01:23:10.624Z,3.50
2023-04-02T01:24:04.915Z,3.50
2023-04-02T01:25:01.924Z,3.50
2023-04-02T01:26:09.155Z,3.50
2023-04-02T01:27:04.069Z,3.50
2023-04-02T01:28:06.866Z,3.50
2023-04-02T01:29:04.887Z,3.50
2023-04-02T01:30:01.424Z,3.50
2023-04-02T01:31:01.885Z,3.50
2023-04-02T01:32:05.847Z,3.50
2023-04-02T01:33:00.914Z,3.50
2023-04-02T01:34:02.156Z,3.50
2023-04-02T01:35:00.828Z,3.50
2023-04-02T01:36:10.649Z,4.70
2023-04-02T01:37:07.430Z,4.70
2023-04-02T01:38:10.621Z,4.70
2023-04-02T01:39:07.969Z,4.70
2023-04-02T01:40:00.679Z,4.70
2023-04-02T01:41:05.506Z,4.70
2023-04-02T01:42:07.445Z,4.70
2023-04-02T01:43:00.675Z,4.70
2023-04-02T01:44:10.059Z,4.70
2023-04-02T01:45:03.223Z,4.70
2023-04-02T01:46:10.613Z,4.70
2023-04-02T01:47:01.831Z,4.70
2023-04-02T01:48:04.327Z,4.70
2023-04-02T01:49:02.976Z,4.70
2023-04-02T01:50:04.021Z,4.70
2023-04-02T01:51:06.157Z,4.70
2023-04-02T01:52:00.787Z,4.70
2023-04-02T01:53:03.221Z,4.70
2023-04-02T01:54:02.744Z,4.70
2023-04-02T01:55:01.175Z,4.70
2023-04-02T01:56:01.310Z,4.70
2023-04-02T01:57:00.786Z,4.70
2023-04-02T01:58:01.068Z,4.70
2023-04-02T01:59:01.766Z,4.70
2023-04-02T02:00:01.307Z,4.70
2023-04-02T02:01:02.907Z,4.70
2023-04-02T02:02:00.674Z,4.70
2023-04-02T02:03:01.348Z,4.70
2023-04-02T02:05:00.940Z,4.70
2023-04-02T02:06:01.053Z,4.90
2023-04-02T02:07:01.733Z,4.90
2023-04-02T02:08:01.239Z,4.90
2023-04-02T02:09:02.112Z,4.90
2023-04-02T02:10:01.224Z,4.90
2023-04-02T02:11:01.324Z,4.90
2023-04-02T02:12:01.518Z,4.90
2023-04-02T02:13:01.073Z,4.90
2023-04-02T02:14:04.426Z,4.90
2023-04-02T02:15:01.276Z,4.90
2023-04-02T02:16:02.944Z,4.90
2023-04-02T02:17:01.684Z,4.90
2023-04-02T02:18:04.179Z,4.90
2023-04-02T02:19:02.017Z,4.90
2023-04-02T02:20:02.402Z,4.90
2023-04-02T02:21:03.769Z,4.90
2023-04-02T02:22:04.003Z,4.90
2023-04-02T02:23:01.193Z,4.90
2023-04-02T02:24:01.529Z,4.90
2023-04-02T02:25:03.548Z,4.90
2023-04-02T02:26:00.701Z,4.90
2023-04-02T02:27:00.670Z,4.90
2023-04-02T02:28:04.871Z,4.90
2023-04-02T02:29:03.506Z,4.90
2023-04-02T02:30:10.134Z,4.90
2023-04-02T02:31:04.302Z,4.90
2023-04-02T02:32:01.742Z,4.90
2023-04-02T02:33:07.065Z,4.90
2023-04-02T02:34:05.231Z,4.90
2023-04-02T02:35:05.150Z,4.90
2023-04-02T02:36:06.201Z,4.60
2023-04-02T02:37:03.799Z,4.60
2023-04-02T02:38:10.622Z,4.60
2023-04-02T02:39:00.685Z,4.60
2023-04-02T02:40:02.662Z,4.60
2023-04-02T02:41:05.525Z,4.60
2023-04-02T02:42:07.096Z,4.60
2023-04-02T02:43:02.874Z,4.60
2023-04-02T02:44:09.858Z,4.60
2023-04-02T02:45:04.065Z,4.60
2023-04-02T02:46:03.854Z,4.60
2023-04-02T02:47:02.624Z,4.60
2023-04-02T02:48:01.466Z,4.60
2023-04-02T02:49:02.375Z,4.60
2023-04-02T02:50:03.097Z,4.60
2023-04-02T02:51:03.669Z,4.60
2023-04-02T02:52:10.601Z,4.60
2023-04-02T02:53:03.236Z,4.60
2023-04-02T02:54:02.715Z,4.60
2023-04-02T02:55:03.945Z,4.60
2023-04-02T02:56:01.177Z,4.60
2023-04-02T02:57:03.171Z,4.60
2023-04-02T02:58:03.957Z,4.60
2023-04-02T02:59:02.292Z,4.60
2023-04-02T03:00:01.203Z,4.60
2023-04-02T03:01:02.197Z,4.60
2023-04-02T03:02:01.361Z,4.60
2023-04-02T03:03:03.054Z,4.60
2023-04-02T03:04:00.996Z,4.60
2023-04-02T03:05:00.949Z,4.60
2023-04-02T03:06:03.882Z,5.40
2023-04-02T03:07:01.584Z,5.40
2023-04-02T03:08:02.338Z,5.40
2023-04-02T03:09:09.946Z,5.40
2023-04-02T03:10:10.641Z,5.40
2023-04-02T03:11:00.687Z,5.40
2023-04-02T03:12:04.078Z,5.40
2023-04-02T03:13:09.577Z,5.40
2023-04-02T03:14:09.675Z,5.40
2023-04-02T03:15:01.702Z,5.40
2023-04-02T03:16:10.749Z,5.40
2023-04-02T03:17:10.598Z,5.40
2023-04-02T03:18:00.945Z,5.40
2023-04-02T03:19:07.214Z,5.40
2023-04-02T03:20:02.710Z,5.40
2023-04-02T03:21:07.271Z,5.40
2023-04-02T03:22:05.691Z,5.40
2023-04-02T03:23:10.848Z,5.40
2023-04-02T03:24:02.656Z,5.40
2023-04-02T03:25:10.591Z,5.40
2023-04-02T03:26:07.130Z,5.40
2023-04-02T03:27:09.050Z,5.40
2023-04-02T03:28:04.980Z,5.40
2023-04-02T03:29:06.144Z,5.40
2023-04-02T03:30:10.613Z,5.40
2023-04-02T03:31:04.553Z,5.40
2023-04-02T03:32:00.690Z,5.40
2023-04-02T03:33:04.173Z,5.40
2023-04-02T03:34:06.709Z,5.40
2023-04-02T03:35:05.721Z,5.40
2023-04-02T03:36:10.643Z,5.90
2023-04-02T03:37:04.629Z,5.90
2023-04-02T03:38:06.751Z,5.90
2023-04-02T03:39:09.024Z,5.90
2023-04-02T03:40:00.686Z,5.90
2023-04-02T03:41:03.839Z,5.90
2023-04-02T03:42:04.647Z,5.90
2023-04-02T03:43:10.619Z,5.90
2023-04-02T03:44:04.395Z,5.90
2023-04-02T03:45:04.558Z,5.90
2023-04-02T03:46:10.637Z,5.90
2023-04-02T03:47:04.309Z,5.90
2023-04-02T03:48:04.312Z,5.90
2023-04-02T03:49:05.134Z,5.90
2023-04-02T03:50:10.601Z,5.90
2023-04-02T03:51:04.776Z,5.90
2023-04-02T03:52:04.687Z,5.90
2023-04-02T03:53:01.401Z,5.90
2023-04-02T03:54:01.023Z,5.90
2023-04-02T03:55:01.544Z,5.90
2023-04-02T03:56:01.111Z,5.90
2023-04-02T03:57:01.026Z,5.90
2023-04-02T03:58:00.682Z,5.90
2023-04-02T03:59:05.213Z,5.90
2023-04-02T04:00:04.022Z,5.90
2023-04-02T04:01:01.697Z,5.90
2023-04-02T04:02:10.668Z,5.90
2023-04-02T04:03:10.701Z,5.90
2023-04-02T04:04:10.730Z,5.90
2023-04-02T04:05:01.699Z,5.90
2023-04-02T04:06:05.349Z,5.50
2023-04-02T04:07:00.917Z,5.50
2023-04-02T04:08:10.605Z,5.50
2023-04-02T04:09:08.085Z,5.50
2023-04-02T04:10:01.589Z,5.50
2023-04-02T04:11:02.511Z,5.50
2023-04-02T04:12:08.065Z,5.50
2023-04-02T04:13:03.146Z,5.50
2023-04-02T04:14:10.609Z,5.50
2023-04-02T04:15:10.607Z,5.50
2023-04-02T04:16:05.284Z,5.50
2023-04-02T04:17:10.609Z,5.50
2023-04-02T04:18:10.597Z,5.50
2023-04-02T04:19:05.578Z,5.50
2023-04-02T04:20:06.793Z,5.50
2023-04-02T04:21:01.883Z,5.50
2023-04-02T04:22:09.987Z,5.50
2023-04-02T04:23:10.654Z,5.50
2023-04-02T04:24:01.600Z,5.50
2023-04-02T04:25:02.427Z,5.50
2023-04-02T04:26:00.673Z,5.50
2023-04-02T04:27:04.921Z,5.50
2023-04-02T04:28:00.727Z,5.50
2023-04-02T04:29:10.761Z,5.50
2023-04-02T04:30:10.594Z,5.50
2023-04-02T04:31:08.218Z,5.50
2023-04-02T04:32:10.674Z,5.50
2023-04-02T04:33:04.104Z,5.50
2023-04-02T04:34:05.516Z,5.50
2023-04-02T04:35:05.380Z,5.50
2023-04-02T04:36:02.093Z,5.40
2023-04-02T04:37:02.975Z,5.40
2023-04-02T04:38:05.913Z,5.40
2023-04-02T04:39:05.551Z,5.40
2023-04-02T04:40:03.945Z,5.40
2023-04-02T04:41:02.995Z,5.40
2023-04-02T04:42:02.465Z,5.40
2023-04-02T04:43:06.497Z,5.40
2023-04-02T04:44:05.912Z,5.40
2023-04-02T04:45:01.732Z,5.40
2023-04-02T04:46:08.364Z,5.40
2023-04-02T04:47:06.193Z,5.40
2023-04-02T04:48:03.484Z,5.40
2023-04-02T04:49:03.945Z,5.40
2023-04-02T04:50:07.738Z,5.40
2023-04-02T04:51:02.618Z,5.40
2023-04-02T04:52:10.631Z,5.40
2023-04-02T04:53:04.872Z,5.40
2023-04-02T04:54:00.741Z,5.40
2023-04-02T04:55:01.067Z,5.40
2023-04-02T04:56:18.229Z,5.40
2023-04-02T04:57:02.123Z,5.40
2023-04-02T04:58:03.453Z,5.40
2023-04-02T04:59:02.850Z,5.40
2023-04-02T05:00:09.190Z,5.40
2023-04-02T05:01:09.530Z,5.40
2023-04-02T05:02:05.091Z,5.40
2023-04-02T05:03:10.604Z,5.40
2023-04-02T05:04:05.024Z,5.40
2023-04-02T05:05:02.554Z,5.40
2023-04-02T05:06:04.731Z,4.40
2023-04-02T05:07:00.687Z,4.40
2023-04-02T05:08:09.314Z,4.40
2023-04-02T05:09:05.220Z,4.40
2023-04-02T05:10:00.690Z,4.40
2023-04-02T05:11:02.600Z,4.40
2023-04-02T05:12:06.869Z,4.40
2023-04-02T05:13:04.373Z,4.40
2023-04-02T05:14:03.415Z,4.40
2023-04-02T05:15:01.685Z,4.40
2023-04-02T05:16:09.319Z,4.40
2023-04-02T05:17:07.743Z,4.40
2023-04-02T05:18:00.721Z,4.40
2023-04-02T05:19:05.769Z,4.40
2023-04-02T05:20:04.172Z,4.40
2023-04-02T05:21:01.696Z,4.40
2023-04-02T05:22:01.726Z,4.40
2023-04-02T05:23:01.691Z,4.40
2023-04-02T05:24:00.681Z,4.40
2023-04-02T05:25:10.600Z,4.40
2023-04-02T05:26:05.517Z,4.40
2023-04-02T05:27:04.428Z,4.40
2023-04-02T05:28:10.611Z,4.40
2023-04-02T05:29:05.523Z,4.40
2023-04-02T05:30:06.099Z,4.40
2023-04-02T05:31:04.378Z,4.40
2023-04-02T05:32:10.640Z,4.40
2023-04-02T05:33:03.701Z,4.40
2023-04-02T05:34:01.140Z,4.40
2023-04-02T05:35:01.150Z,4.40
2023-04-02T05:36:00.723Z,5.20
2023-04-02T05:37:00.770Z,5.20
2023-04-02T05:38:00.971Z,5.20
2023-04-02T05:39:00.785Z,5.20
2023-04-02T05:40:10.217Z,5.20
2023-04-02T05:41:03.371Z,5.20
2023-04-02T05:42:03.398Z,5.20
2023-04-02T05:43:02.460Z,5.20
2023-04-02T05:44:10.607Z,5.20
2023-04-02T05:45:06.501Z,5.20
2023-04-02T05:46:04.680Z,5.20
2023-04-02T05:47:00.833Z,5.20
2023-04-02T05:48:04.452Z,5.20
2023-04-02T05:49:03.075Z,5.20
2023-04-02T05:50:10.601Z,5.20
2023-04-02T05:51:01.665Z,5.20
2023-04-02T05:52:02.595Z,5.20
2023-04-02T05:53:05.525Z,5.20
2023-04-02T05:54:02.731Z,5.20
2023-04-02T05:55:00.678Z,5.20
2023-04-02T05:56:00.681Z,5.20
2023-04-02T05:57:04.015Z,5.20
2023-04-02T05:58:29.503Z,5.20
2023-04-02T05:59:05.110Z,5.20
2023-04-02T06:00:04.428Z,5.20
2023-04-02T06:01:03.622Z,5.20
2023-04-02T06:02:06.326Z,5.20
2023-04-02T06:03:06.262Z,5.20
2023-04-02T06:04:05.297Z,5.20
2023-04-02T06:05:04.254Z,5.20
2023-04-02T06:06:05.502Z,4.10
2023-04-02T06:07:04.483Z,4.10
2023-04-02T06:08:10.602Z,4.10
2023-04-02T06:09:04.842Z,4.10
2023-04-02T06:10:10.606Z,4.10
2023-04-02T06:11:10.615Z,4.10
2023-04-02T06:12:07.102Z,4.10
2023-04-02T06:13:05.158Z,4.10
2023-04-02T06:14:02.148Z,4.10
2023-04-02T06:15:00.830Z,4.10
2023-04-02T06:16:01.081Z,4.10
2023-04-02T06:17:00.765Z,4.10
2023-04-02T06:18:00.793Z,4.10
2023-04-02T06:19:01.557Z,4.10
2023-04-02T06:20:03.242Z,4.10
2023-04-02T06:21:01.499Z,4.10
2023-04-02T06:22:08.597Z,4.10
2023-04-02T06:23:05.652Z,4.10
2023-04-02T06:24:03.311Z,4.10
2023-04-02T06:25:04.175Z,4.10
2023-04-02T06:26:03.568Z,4.10
2023-04-02T06:27:03.304Z,4.10
2023-04-02T06:28:03.164Z,4.10
2023-04-02T06:29:03.964Z,4.10
2023-04-02T06:30:04.452Z,4.10
2023-04-02T06:31:04.833Z,4.10
2023-04-02T06:32:01.047Z,4.10
2023-04-02T06:33:00.773Z,4.10
2023-04-02T06:34:01.968Z,4.10
2023-04-02T06:35:00.725Z,4.10
2023-04-02T06:36:02.802Z,3.90
2023-04-02T06:37:03.772Z,3.90
2023-04-02T06:38:02.976Z,3.90
2023-04-02T06:39:03.694Z,3.90
2023-04-02T06:40:02.373Z,3.90
2023-04-02T06:41:04.253Z,3.90
2023-04-02T06:42:08.114Z,3.90
2023-04-02T06:43:04.903Z,3.90
2023-04-02T06:44:06.123Z,3.90
2023-04-02T06:45:01.047Z,3.90
2023-04-02T06:46:10.630Z,3.90
2023-04-02T06:47:03.761Z,3.90
2023-04-02T06:48:01.722Z,3.90
2023-04-02T06:49:08.535Z,3.90
2023-04-02T06:50:10.611Z,3.90
2023-04-02T06:51:03.967Z,3.90
2023-04-02T06:52:02.589Z,3.90
2023-04-02T06:53:03.429Z,3.90
2023-04-02T06:54:00.696Z,3.90
2023-04-02T06:55:04.224Z,3.90
2023-04-02T06:56:03.985Z,3.90
2023-04-02T06:57:00.842Z,3.90
2023-04-02T06:58:00.726Z,3.90
2023-04-02T06:59:00.763Z,3.90
2023-04-02T07:00:00.717Z,3.90
2023-04-02T07:01:00.728Z,3.90
2023-04-02T07:02:03.202Z,3.90
2023-04-02T07:03:01.859Z,3.90
2023-04-02T07:04:00.714Z,3.90
2023-04-02T07:05:04.087Z,3.90
2023-04-02T07:06:01.535Z,5.20
2023-04-02T07:07:00.700Z,5.20
2023-04-02T07:08:00.710Z,5.20
2023-04-02T07:09:00.715Z,5.20
2023-04-02T07:10:00.701Z,5.20
2023-04-02T07:11:00.744Z,5.20
2023-04-02T07:12:00.706Z,5.20
2023-04-02T07:13:00.754Z,5.20
2023-04-02T07:14:00.693Z,5.20
2023-04-02T07:15:00.706Z,5.20
2023-04-02T07:16:00.767Z,5.20
2023-04-02T07:17:00.690Z,5.20
2023-04-02T07:18:00.771Z,5.20
2023-04-02T07:19:00.732Z,5.20
2023-04-02T07:20:00.689Z,5.20
2023-04-02T07:21:00.750Z,5.20
2023-04-02T07:22:00.785Z,5.20
2023-04-02T07:23:00.722Z,5.20
2023-04-02T07:36:00.823Z,3.70
2023-04-02T07:37:00.732Z,3.70
2023-04-02T07:38:00.700Z,3.70
2023-04-02T07:39:01.010Z,3.70
2023-04-02T07:40:00.853Z,3.70
2023-04-02T07:41:04.672Z,3.70
2023-04-02T07:42:01.027Z,3.70
2023-04-02T07:43:01.112Z,3.70
2023-04-02T07:44:00.750Z,3.70
2023-04-02T07:45:00.724Z,3.70
2023-04-02T07:46:01.025Z,3.70
2023-04-02T07:47:00.817Z,3.70
2023-04-02T07:48:04.742Z,3.70
2023-04-02T07:49:00.716Z,3.70
2023-04-02T07:50:00.760Z,3.70
2023-04-02T07:51:00.908Z,3.70
2023-04-02T07:52:00.778Z,3.70
2023-04-02T07:53:00.749Z,3.70
2023-04-02T07:54:00.690Z,3.70
2023-04-02T07:55:00.794Z,3.70
2023-04-02T07:56:02.152Z,3.70
2023-04-02T07:57:00.707Z,3.70
2023-04-02T07:58:00.727Z,3.70
2023-04-02T07:59:01.015Z,3.70
2023-04-02T08:00:00.713Z,3.70
2023-04-02T08:01:00.701Z,3.70
2023-04-02T08:02:00.701Z,3.70
2023-04-02T08:03:00.752Z,3.70
2023-04-02T08:04:02.010Z,3.70
2023-04-02T08:05:00.702Z,3.70
2023-04-02T08:06:00.706Z,4.00
2023-04-02T08:07:00.723Z,4.00
2023-04-02T08:08:00.705Z,4.00
2023-04-02T08:09:00.721Z,4.00
2023-04-02T08:10:00.903Z,4.00
2023-04-02T08:11:00.721Z,4.00
2023-04-02T08:12:00.703Z,4.00
2023-04-02T08:13:00.702Z,4.00
2023-04-02T08:14:00.698Z,4.00
2023-04-02T08:15:00.971Z,4.00
2023-04-02T08:16:01.059Z,4.00
2023-04-02T08:17:00.779Z,4.00
2023-04-02T08:18:00.701Z,4.00
2023-04-02T08:19:00.689Z,4.00
2023-04-02T08:20:00.744Z,4.00
2023-04-02T08:21:00.767Z,4.00
2023-04-02T08:22:00.761Z,4.00
2023-04-02T08:23:01.039Z,4.00
2023-04-02T08:24:00.705Z,4.00
2023-04-02T08:25:00.762Z,4.00
2023-04-02T08:26:01.101Z,4.00
2023-04-02T08:27:00.829Z,4.00
2023-04-02T08:28:00.692Z,4.00
2023-04-02T08:29:00.882Z,4.00
2023-04-02T08:30:00.718Z,4.00
2023-04-02T08:31:00.959Z,4.00
2023-04-02T08:32:00.893Z,4.00
2023-04-02T08:33:01.038Z,4.00
2023-04-02T08:34:00.757Z,4.00
2023-04-02T08:35:00.828Z,4.00
2023-04-02T08:36:00.741Z,3.60
2023-04-02T08:37:00.696Z,3.60
2023-04-02T08:38:00.722Z,3.60
2023-04-02T08:39:00.713Z,3.60
2023-04-02T08:40:00.716Z,3.60
2023-04-02T08:41:01.759Z,3.60
2023-04-02T08:42:11.346Z,3.60
2023-04-02T08:43:10.619Z,3.60
2023-04-02T08:44:10.623Z,3.60
2023-04-02T08:45:23.712Z,3.60
2023-04-02T08:46:06.350Z,3.60
2023-04-02T08:47:04.044Z,3.60
2023-04-02T08:48:00.882Z,3.60
2023-04-02T08:49:03.484Z,3.60
2023-04-02T08:50:02.406Z,3.60
2023-04-02T08:51:01.638Z,3.60
2023-04-02T08:52:00.735Z,3.60
2023-04-02T08:53:05.508Z,3.60
2023-04-02T08:54:02.382Z,3.60
2023-04-02T08:55:01.401Z,3.60
2023-04-02T08:56:08.207Z,3.60
2023-04-02T08:57:06.654Z,3.60
2023-04-02T08:58:03.747Z,3.60
2023-04-02T08:59:02.299Z,3.60
2023-04-02T09:00:05.306Z,3.60
2023-04-02T09:01:02.058Z,3.60
2023-04-02T09:02:00.720Z,3.60
2023-04-02T09:03:07.255Z,3.60
2023-04-02T09:04:01.656Z,3.60
2023-04-02T09:05:02.591Z,3.60
2023-04-02T09:06:01.947Z,4.50
2023-04-02T09:07:00.728Z,4.50
2023-04-02T09:08:02.058Z,4.50
2023-04-02T09:09:00.716Z,4.50
2023-04-02T09:10:00.844Z,4.50
2023-04-02T09:11:00.771Z,4.50
2023-04-02T09:12:02.767Z,4.50
2023-04-02T09:13:01.767Z,4.50
2023-04-02T09:14:04.721Z,4.50
2023-04-02T09:15:10.608Z,4.50
2023-04-02T09:16:06.499Z,4.50
2023-04-02T09:17:02.594Z,4.50
2023-04-02T09:18:10.648Z,4.50
2023-04-02T09:19:00.690Z,4.50
2023-04-02T09:20:02.845Z,4.50
2023-04-02T09:21:06.601Z,4.50
2023-04-02T09:22:01.684Z,4.50
2023-04-02T09:23:00.711Z,4.50
2023-04-02T09:24:02.291Z,4.50
2023-04-02T09:25:01.664Z,4.50
2023-04-02T09:26:04.689Z,4.50
2023-04-02T09:27:00.722Z,4.50
2023-04-02T09:28:01.983Z,4.50
2023-04-02T09:29:04.038Z,4.50
2023-04-02T09:30:00.699Z,4.50
2023-04-02T09:31:10.634Z,4.50
2023-04-02T09:32:06.879Z,4.50
2023-04-02T09:33:02.562Z,4.50
2023-04-02T09:34:00.695Z,4.50
2023-04-02T09:35:12.271Z,4.50
2023-04-02T09:36:00.773Z,4.00
2023-04-02T09:37:07.073Z,4.00
2023-04-02T09:38:10.620Z,4.00
2023-04-02T09:39:02.966Z,4.00
2023-04-02T09:40:10.616Z,4.00
2023-04-02T09:41:04.973Z,4.00
2023-04-02T09:42:05.989Z,4.00
2023-04-02T09:43:03.275Z,4.00
2023-04-02T09:44:10.608Z,4.00
2023-04-02T09:45:10.617Z,4.00
2023-04-02T09:46:02.375Z,4.00
2023-04-02T09:47:00.785Z,4.00
2023-04-02T09:48:00.763Z,4.00
2023-04-02T09:49:01.240Z,4.00
2023-04-02T09:50:10.602Z,4.00
2023-04-02T09:51:10.389Z,4.00
2023-04-02T09:52:10.630Z,4.00
2023-04-02T09:53:10.615Z,4.00
2023-04-02T09:54:01.710Z,4.00
2023-04-02T09:55:10.597Z,4.00
2023-04-02T09:56:09.523Z,4.00
2023-04-02T09:57:02.565Z,4.00
2023-04-02T09:58:10.603Z,4.00
2023-04-02T09:59:00.677Z,4.00
2023-04-02T10:00:25.267Z,4.00
2023-04-02T10:01:00.800Z,4.00
2023-04-02T10:02:00.861Z,4.00
2023-04-02T10:03:00.794Z,4.00
2023-04-02T10:04:01.949Z,4.00
2023-04-02T10:05:02.673Z,4.00
2023-04-02T10:06:09.749Z,4.10
2023-04-02T10:07:01.009Z,4.10
2023-04-02T10:08:10.619Z,4.10
2023-04-02T10:09:10.600Z,4.10
2023-04-02T10:10:01.994Z,4.10
2023-04-02T10:11:01.924Z,4.10
2023-04-02T10:12:03.211Z,4.10
2023-04-02T10:13:01.734Z,4.10
2023-04-02T10:14:02.699Z,4.10
2023-04-02T10:15:02.276Z,4.10
2023-04-02T10:16:03.255Z,4.10
2023-04-02T10:17:06.295Z,4.10
2023-04-02T10:18:05.686Z,4.10
2023-04-02T10:19:09.288Z,4.10
2023-04-02T10:20:04.751Z,4.10
2023-04-02T10:21:02.258Z,4.10
2023-04-02T10:22:04.095Z,4.10
2023-04-02T10:23:00.704Z,4.10
2023-04-02T10:24:00.906Z,4.10
2023-04-02T10:25:00.759Z,4.10
2023-04-02T10:26:07.232Z,4.10
2023-04-02T10:27:00.695Z,4.10
2023-04-02T10:28:10.617Z,4.10
2023-04-02T10:29:01.698Z,4.10
2023-04-02T10:30:06.562Z,4.10
2023-04-02T10:31:06.771Z,4.10
2023-04-02T10:32:00.693Z,4.10
2023-04-02T10:33:04.125Z,4.10
2023-04-02T10:34:03.399Z,4.10
2023-04-02T10:35:02.437Z,4.10
2023-04-02T10:36:08.038Z,3.70
2023-04-02T10:37:08.227Z,3.70
2023-04-02T10:38:08.985Z,3.70
2023-04-02T10:39:05.887Z,3.70
2023-04-02T10:40:07.841Z,3.70
2023-04-02T10:41:10.609Z,3.70
2023-04-02T10:42:10.055Z,3.70
2023-04-02T10:43:10.607Z,3.70
2023-04-02T10:44:17.163Z,3.70
2023-04-02T10:45:10.612Z,3.70
2023-04-02T10:46:00.758Z,3.70
2023-04-02T10:47:00.693Z,3.70
2023-04-02T10:48:01.797Z,3.70
2023-04-02T10:49:08.136Z,3.70
2023-04-02T10:50:03.975Z,3.70
2023-04-02T10:51:05.667Z,3.70
2023-04-02T10:52:10.608Z,3.70
2023-04-02T10:53:08.488Z,3.70
2023-04-02T10:54:09.335Z,3.70
2023-04-02T10:55:03.111Z,3.70
2023-04-02T10:56:02.447Z,3.70
2023-04-02T10:57:07.817Z,3.70
2023-04-02T10:58:06.306Z,3.70
2023-04-02T10:59:04.844Z,3.70
2023-04-02T11:00:04.626Z,3.70
2023-04-02T11:01:04.711Z,3.70
2023-04-02T11:02:03.099Z,3.70
2023-04-02T11:03:03.698Z,3.70
2023-04-02T11:04:00.711Z,3.70
2023-04-02T11:05:04.564Z,3.70
2023-04-02T11:06:04.708Z,5.40
2023-04-02T11:07:13.798Z,5.40
2023-04-02T11:08:04.538Z,5.40
2023-04-02T11:09:02.647Z,5.40
2023-04-02T11:10:00.871Z,5.40
2023-04-02T11:11:10.640Z,5.40
2023-04-02T11:12:01.984Z,5.40
2023-04-02T11:13:04.758Z,5.40
2023-04-02T11:14:08.253Z,5.40
2023-04-02T11:15:01.236Z,5.40
2023-04-02T11:16:00.863Z,5.40
2023-04-02T11:17:01.078Z,5.40
2023-04-02T11:18:00.808Z,5.40
2023-04-02T11:19:10.618Z,5.40
2023-04-02T11:20:10.702Z,5.40
2023-04-02T11:21:10.611Z,5.40
2023-04-02T11:22:04.322Z,5.40
2023-04-02T11:23:08.497Z,5.40
2023-04-02T11:24:01.601Z,5.40
2023-04-02T11:25:01.720Z,5.40
2023-04-02T11:26:10.620Z,5.40
2023-04-02T11:27:10.648Z,5.40
2023-04-02T11:28:10.615Z,5.40
2023-04-02T11:29:05.506Z,5.40
2023-04-02T11:30:10.688Z,5.40
2023-04-02T11:31:01.012Z,5.40
2023-04-02T11:32:10.620Z,5.40
2023-04-02T11:33:10.650Z,5.40
2023-04-02T11:34:00.722Z,5.40
2023-04-02T11:35:06.656Z,5.40
2023-04-02T11:36:00.739Z,5.30
2023-04-02T11:37:01.584Z,5.30
2023-04-02T11:38:02.345Z,5.30
2023-04-02T11:39:11.031Z,5.30
2023-04-02T11:40:02.261Z,5.30
2023-04-02T11:41:00.747Z,5.30
2023-04-02T11:42:01.996Z,5.30
2023-04-02T11:43:10.635Z,5.30
2023-04-02T11:44:01.022Z,5.30
2023-04-02T11:45:10.610Z,5.30
2023-04-02T11:46:01.673Z,5.30
2023-04-02T11:47:10.623Z,5.30
2023-04-02T11:48:00.868Z,5.30
2023-04-02T11:49:10.614Z,5.30
2023-04-02T11:50:01.574Z,5.30
2023-04-02T11:51:10.127Z,5.30
2023-04-02T11:52:11.481Z,5.30
2023-04-02T11:53:03.470Z,5.30
2023-04-02T11:54:00.826Z,5.30
2023-04-02T11:55:04.851Z,5.30
2023-04-02T11:56:10.611Z,5.30
2023-04-02T11:57:08.261Z,5.30
2023-04-02T11:58:06.437Z,5.30
2023-04-02T11:59:02.491Z,5.30
2023-04-02T12:00:00.698Z,5.30
2023-04-02T12:01:10.645Z,5.30
2023-04-02T12:02:08.383Z,5.30
2023-04-02T12:03:10.672Z,5.30
2023-04-02T12:04:06.853Z,5.30
2023-04-02T12:05:08.779Z,5.30
2023-04-02T12:06:10.628Z,4.50
2023-04-02T12:07:10.668Z,4.50
2023-04-02T12:08:10.743Z,4.50
2023-04-02T12:09:10.621Z,4.50
2023-04-02T12:10:04.052Z,4.50
2023-04-02T12:11:01.354Z,4.50
2023-04-02T12:12:12.281Z,4.50
2023-04-02T12:13:00.761Z,4.50
2023-04-02T12:14:01.729Z,4.50
2023-04-02T12:15:00.911Z,4.50
2023-04-02T12:16:01.316Z,4.50
2023-04-02T12:17:01.964Z,4.50
2023-04-02T12:18:05.501Z,4.50
2023-04-02T12:19:01.287Z,4.50
2023-04-02T12:20:05.103Z,4.50
2023-04-02T12:21:01.930Z,4.50
2023-04-02T12:22:00.868Z,4.50
2023-04-02T12:23:01.222Z,4.50
2023-04-02T12:24:02.897Z,4.50
2023-04-02T12:25:03.367Z,4.50
2023-04-02T12:26:02.294Z,4.50
2023-04-02T12:27:10.294Z,4.50
2023-04-02T12:28:02.746Z,4.50
2023-04-02T12:29:10.616Z,4.50
2023-04-02T12:30:10.636Z,4.50
2023-04-02T12:31:01.760Z,4.50
2023-04-02T12:32:00.758Z,4.50
2023-04-02T12:33:10.649Z,4.50
2023-04-02T12:34:00.745Z,4.50
2023-04-02T12:35:01.895Z,4.50
2023-04-02T12:36:01.393Z,3.60
2023-04-02T12:37:02.188Z,3.60
2023-04-02T12:38:00.773Z,3.60
2023-04-02T12:39:00.732Z,3.60
2023-04-02T12:40:02.647Z,3.60
2023-04-02T12:41:02.038Z,3.60
2023-04-02T12:42:00.736Z,3.60
2023-04-02T12:43:00.880Z,3.60
2023-04-02T12:44:10.620Z,3.60
2023-04-02T12:45:01.340Z,3.60
2023-04-02T12:46:01.957Z,3.60
2023-04-02T12:47:00.733Z,3.60
2023-04-02T12:48:02.095Z,3.60
2023-04-02T12:49:07.315Z,3.60
2023-04-02T12:50:01.147Z,3.60
2023-04-02T12:51:01.996Z,3.60
2023-04-02T12:52:01.530Z,3.60
2023-04-02T12:53:00.807Z,3.60
2023-04-02T12:54:00.894Z,3.60
2023-04-02T12:55:01.523Z,3.60
2023-04-02T12:56:01.016Z,3.60
2023-04-02T12:57:10.620Z,3.60
2023-04-02T12:58:00.698Z,3.60
2023-04-02T12:59:00.711Z,3.60
2023-04-02T13:00:00.686Z,3.60
2023-04-02T13:01:09.951Z,3.60
2023-04-02T13:02:02.407Z,3.60
2023-04-02T13:03:10.661Z,3.60
2023-04-02T13:04:02.650Z,3.60
2023-04-02T13:05:00.894Z,3.60
2023-04-02T13:06:00.796Z,3.50
2023-04-02T13:07:00.737Z,3.50
2023-04-02T13:08:00.894Z,3.50
2023-04-02T13:09:01.839Z,3.50
2023-04-02T13:10:02.124Z,3.50
2023-04-02T13:11:01.831Z,3.50
2023-04-02T13:12:01.198Z,3.50
2023-04-02T13:13:01.927Z,3.50
2023-04-02T13:14:01.825Z,3.50
2023-04-02T13:15:01.827Z,3.50
2023-04-02T13:16:02.402Z,3.50
2023-04-02T13:17:00.704Z,3.50
2023-04-02T13:18:10.630Z,3.50
2023-04-02T13:19:10.624Z,3.50
2023-04-02T13:20:10.603Z,3.50
2023-04-02T13:21:04.904Z,3.50
2023-04-02T13:22:01.718Z,3.50
2023-04-02T13:23:10.641Z,3.50
2023-04-02T13:24:00.706Z,3.50
2023-04-02T13:25:00.708Z,3.50
2023-04-02T13:26:03.192Z,3.50
2023-04-02T13:27:01.749Z,3.50
2023-04-02T13:28:00.835Z,3.50
2023-04-02T13:29:10.686Z,3.50
2023-04-02T13:30:10.605Z,3.50
2023-04-02T13:31:00.689Z,3.50